sensor_id;sensor_type;location;lat;lon;timestamp;P1;durP1;ratioP1;P2;durP2;ratioP2
61322;SDS011;47203;48.428;11.974;2022-12-18T08:31:14;19.90;;;11.10;;
61322;SDS011;47203;48.428;11.974;2022-12-18T08:33:20;23.25;;;13.75;;
61322;SDS011;47203;48.428;11.974;2022-12-18T08:35:25;19.13;;;11.35;;
61322;SDS011;47203;48.428;11.974;2022-12-18T08:37:37;19.88;;;11.50;;
61322;SDS011;47203;48.428;11.974;2022-12-18T08:39:42;19.90;;;11.50;;
61322;SDS011;47203;48.428;11.974;2022-12-18T08:41:48;21.55;;;11.40;;
61322;SDS011;47203;48.428;11.974;2022-12-18T08:44:10;24.67;;;12.65;;
61322;SDS011;47203;48.428;11.974;2022-12-18T08:46:33;20.30;;;12.13;;
61322;SDS011;47203;48.428;11.974;2022-12-18T08:48:42;20.77;;;12.40;;
61322;SDS011;47203;48.428;11.974;2022-12-18T08:50:53;18.20;;;10.98;;
61322;SDS011;47203;48.428;11.974;2022-12-18T08:52:59;20.92;;;11.90;;
61322;SDS011;47203;48.428;11.974;2022-12-18T08:55:06;20.90;;;12.10;;
61322;SDS011;47203;48.428;11.974;2022-12-18T08:57:13;22.55;;;12.25;;
61322;SDS011;47203;48.428;11.974;2022-12-18T08:59:19;21.23;;;11.15;;
61322;SDS011;47203;48.428;11.974;2022-12-18T09:01:25;20.45;;;10.70;;
61322;SDS011;47203;48.428;11.974;2022-12-18T09:03:33;20.05;;;11.90;;
61322;SDS011;47203;48.428;11.974;2022-12-18T09:05:39;21.27;;;11.65;;
61322;SDS011;47203;48.428;11.974;2022-12-18T09:07:45;17.13;;;10.82;;
61322;SDS011;47203;48.428;11.974;2022-12-18T09:09:50;17.75;;;11.13;;
61322;SDS011;47203;48.428;11.974;2022-12-18T09:11:56;18.85;;;10.77;;
61322;SDS011;47203;48.428;11.974;2022-12-18T09:14:02;24.10;;;11.98;;
61322;SDS011;47203;48.428;11.974;2022-12-18T09:16:07;21.05;;;11.18;;
61322;SDS011;47203;48.428;11.974;2022-12-18T09:18:13;21.15;;;11.48;;
61322;SDS011;47203;48.428;11.974;2022-12-18T09:20:23;20.35;;;10.90;;
61322;SDS011;47203;48.428;11.974;2022-12-18T09:22:29;24.33;;;11.75;;
61322;SDS011;47203;48.428;11.974;2022-12-18T09:24:35;19.17;;;11.38;;
61322;SDS011;47203;48.428;11.974;2022-12-18T09:26:40;20.58;;;11.65;;
61322;SDS011;47203;48.428;11.974;2022-12-18T09:28:48;22.85;;;12.73;;
61322;SDS011;47203;48.428;11.974;2022-12-18T09:30:55;20.33;;;11.60;;
61322;SDS011;47203;48.428;11.974;2022-12-18T09:33:00;23.98;;;12.80;;
61322;SDS011;47203;48.428;11.974;2022-12-18T09:35:07;26.13;;;13.73;;
61322;SDS011;47203;48.428;11.974;2022-12-18T09:37:15;21.83;;;11.63;;
61322;SDS011;47203;48.428;11.974;2022-12-18T09:39:21;21.85;;;12.15;;
61322;SDS011;47203;48.428;11.974;2022-12-18T09:41:34;22.17;;;11.05;;
61322;SDS011;47203;48.428;11.974;2022-12-18T09:43:49;23.73;;;13.60;;
61322;SDS011;47203;48.428;11.974;2022-12-18T09:46:01;22.20;;;13.25;;
61322;SDS011;47203;48.428;11.974;2022-12-18T09:48:14;19.40;;;10.35;;
61322;SDS011;47203;48.428;11.974;2022-12-18T09:50:26;23.80;;;12.35;;
61322;SDS011;47203;48.428;11.974;2022-12-18T09:52:41;23.70;;;13.32;;
61322;SDS011;47203;48.428;11.974;2022-12-18T09:54:54;19.83;;;11.68;;
61322;SDS011;47203;48.428;11.974;2022-12-18T09:57:05;21.63;;;11.82;;
61322;SDS011;47203;48.428;11.974;2022-12-18T09:59:19;19.58;;;10.48;;
61322;SDS011;47203;48.428;11.974;2022-12-18T10:01:31;18.35;;;10.50;;
61322;SDS011;47203;48.428;11.974;2022-12-18T10:03:44;17.38;;;10.25;;
61322;SDS011;47203;48.428;11.974;2022-12-18T10:05:52;20.30;;;11.63;;
61322;SDS011;47203;48.428;11.974;2022-12-18T10:08:13;21.13;;;12.48;;
61322;SDS011;47203;48.428;11.974;2022-12-18T10:10:32;18.35;;;10.65;;
61322;SDS011;47203;48.428;11.974;2022-12-18T10:12:47;19.80;;;11.68;;
61322;SDS011;47203;48.428;11.974;2022-12-18T10:15:07;19.30;;;11.05;;
61322;SDS011;47203;48.428;11.974;2022-12-18T10:17:31;20.10;;;11.38;;
61322;SDS011;47203;48.428;11.974;2022-12-18T10:19:49;21.90;;;12.18;;
61322;SDS011;47203;48.428;11.974;2022-12-18T10:22:13;20.02;;;10.88;;
61322;SDS011;47203;48.428;11.974;2022-12-18T10:24:42;18.58;;;9.85;;
61322;SDS011;47203;48.428;11.974;2022-12-18T10:26:59;17.05;;;10.68;;
61322;SDS011;47203;48.428;11.974;2022-12-18T10:29:18;20.55;;;11.68;;
61322;SDS011;47203;48.428;11.974;2022-12-18T10:31:24;16.55;;;9.85;;
61322;SDS011;47203;48.428;11.974;2022-12-18T10:33:30;20.52;;;10.90;;
61322;SDS011;47203;48.428;11.974;2022-12-18T10:35:38;19.17;;;10.82;;
61322;SDS011;47203;48.428;11.974;2022-12-18T10:37:59;19.10;;;10.40;;
61322;SDS011;47203;48.428;11.974;2022-12-18T10:40:15;17.75;;;10.25;;
61322;SDS011;47203;48.428;11.974;2022-12-18T10:42:23;15.73;;;10.23;;
61322;SDS011;47203;48.428;11.974;2022-12-18T10:44:28;19.00;;;11.23;;
61322;SDS011;47203;48.428;11.974;2022-12-18T10:46:34;19.95;;;11.13;;
61322;SDS011;47203;48.428;11.974;2022-12-18T10:48:40;17.42;;;11.02;;
61322;SDS011;47203;48.428;11.974;2022-12-18T10:50:57;20.70;;;11.82;;
61322;SDS011;47203;48.428;11.974;2022-12-18T10:53:15;18.77;;;10.85;;
61322;SDS011;47203;48.428;11.974;2022-12-18T10:55:30;19.13;;;10.63;;
61322;SDS011;47203;48.428;11.974;2022-12-18T10:57:40;17.92;;;10.90;;
61322;SDS011;47203;48.428;11.974;2022-12-18T10:59:49;17.70;;;9.30;;
61322;SDS011;47203;48.428;11.974;2022-12-18T11:01:57;19.33;;;11.32;;
61322;SDS011;47203;48.428;11.974;2022-12-18T11:04:07;17.30;;;10.68;;
61322;SDS011;47203;48.428;11.974;2022-12-18T11:06:14;18.90;;;11.50;;
61322;SDS011;47203;48.428;11.974;2022-12-18T11:08:23;19.85;;;11.80;;
61322;SDS011;47203;48.428;11.974;2022-12-18T11:10:31;19.70;;;11.38;;
61322;SDS011;47203;48.428;11.974;2022-12-18T11:12:42;19.20;;;10.98;;
61322;SDS011;47203;48.428;11.974;2022-12-18T11:14:48;17.63;;;10.55;;
61322;SDS011;47203;48.428;11.974;2022-12-18T11:16:58;19.00;;;11.10;;
61322;SDS011;47203;48.428;11.974;2022-12-18T11:19:34;22.92;;;12.20;;
61322;SDS011;47203;48.428;11.974;2022-12-18T11:21:41;19.40;;;11.15;;
61322;SDS011;47203;48.428;11.974;2022-12-18T11:23:48;18.88;;;11.93;;
61322;SDS011;47203;48.428;11.974;2022-12-18T11:25:59;21.75;;;11.18;;
61322;SDS011;47203;48.428;11.974;2022-12-18T11:28:25;21.55;;;12.68;;
61322;SDS011;47203;48.428;11.974;2022-12-18T11:30:43;20.80;;;12.30;;
61322;SDS011;47203;48.428;11.974;2022-12-18T11:32:48;26.58;;;13.95;;
61322;SDS011;47203;48.428;11.974;2022-12-18T11:34:59;22.75;;;12.80;;
61322;SDS011;47203;48.428;11.974;2022-12-18T11:37:15;18.70;;;11.85;;
61322;SDS011;47203;48.428;11.974;2022-12-18T11:39:24;24.45;;;10.93;;
61322;SDS011;47203;48.428;11.974;2022-12-18T11:41:45;22.75;;;12.02;;
61322;SDS011;47203;48.428;11.974;2022-12-18T11:44:10;23.15;;;12.48;;
61322;SDS011;47203;48.428;11.974;2022-12-18T11:46:23;21.05;;;12.40;;
61322;SDS011;47203;48.428;11.974;2022-12-18T11:48:37;19.10;;;11.77;;
61322;SDS011;47203;48.428;11.974;2022-12-18T11:50:51;23.63;;;12.73;;
61322;SDS011;47203;48.428;11.974;2022-12-18T11:52:59;20.58;;;11.70;;
61322;SDS011;47203;48.428;11.974;2022-12-18T11:55:10;21.77;;;12.20;;
61322;SDS011;47203;48.428;11.974;2022-12-18T11:57:23;21.40;;;13.18;;
61322;SDS011;47203;48.428;11.974;2022-12-18T11:59:41;22.27;;;12.13;;
61322;SDS011;47203;48.428;11.974;2022-12-18T12:02:01;20.75;;;12.57;;
61322;SDS011;47203;48.428;11.974;2022-12-18T12:04:40;20.08;;;11.25;;
61322;SDS011;47203;48.428;11.974;2022-12-18T12:06:58;21.23;;;12.38;;
61322;SDS011;47203;48.428;11.974;2022-12-18T12:09:20;25.23;;;13.15;;
61322;SDS011;47203;48.428;11.974;2022-12-18T12:11:41;19.60;;;11.52;;
61322;SDS011;47203;48.428;11.974;2022-12-18T12:14:07;17.55;;;9.60;;
61322;SDS011;47203;48.428;11.974;2022-12-18T12:16:33;20.25;;;10.75;;
61322;SDS011;47203;48.428;11.974;2022-12-18T12:18:54;16.42;;;10.02;;
61322;SDS011;47203;48.428;11.974;2022-12-18T12:21:16;23.60;;;13.80;;
61322;SDS011;47203;48.428;11.974;2022-12-18T12:23:33;22.10;;;12.38;;
61322;SDS011;47203;48.428;11.974;2022-12-18T12:25:49;17.98;;;11.63;;
61322;SDS011;47203;48.428;11.974;2022-12-18T12:28:09;20.30;;;11.30;;
61322;SDS011;47203;48.428;11.974;2022-12-18T12:30:30;18.00;;;11.18;;
61322;SDS011;47203;48.428;11.974;2022-12-18T12:32:57;21.90;;;11.55;;
61322;SDS011;47203;48.428;11.974;2022-12-18T12:35:24;18.65;;;10.05;;
61322;SDS011;47203;48.428;11.974;2022-12-18T12:37:41;19.08;;;10.77;;
61322;SDS011;47203;48.428;11.974;2022-12-18T12:40:00;16.20;;;10.05;;
61322;SDS011;47203;48.428;11.974;2022-12-18T12:42:29;18.08;;;9.52;;
61322;SDS011;47203;48.428;11.974;2022-12-18T12:44:55;20.27;;;10.40;;
61322;SDS011;47203;48.428;11.974;2022-12-18T12:47:13;19.70;;;10.70;;
61322;SDS011;47203;48.428;11.974;2022-12-18T12:49:25;18.73;;;10.65;;
61322;SDS011;47203;48.428;11.974;2022-12-18T12:51:57;20.00;;;11.18;;
61322;SDS011;47203;48.428;11.974;2022-12-18T12:54:12;16.90;;;10.07;;
61322;SDS011;47203;48.428;11.974;2022-12-18T12:56:27;18.70;;;10.48;;
61322;SDS011;47203;48.428;11.974;2022-12-18T12:58:46;17.42;;;10.38;;
61322;SDS011;47203;48.428;11.974;2022-12-18T13:01:10;19.00;;;11.85;;
61322;SDS011;47203;48.428;11.974;2022-12-18T13:03:34;21.13;;;11.57;;
61322;SDS011;47203;48.428;11.974;2022-12-18T13:05:53;21.13;;;12.35;;
61322;SDS011;47203;48.428;11.974;2022-12-18T13:08:06;19.67;;;10.95;;
61322;SDS011;47203;48.428;11.974;2022-12-18T13:10:24;21.55;;;11.93;;
61322;SDS011;47203;48.428;11.974;2022-12-18T13:12:51;22.10;;;12.07;;
61322;SDS011;47203;48.428;11.974;2022-12-18T13:15:11;21.95;;;10.82;;
61322;SDS011;47203;48.428;11.974;2022-12-18T13:17:28;20.92;;;11.27;;
61322;SDS011;47203;48.428;11.974;2022-12-18T13:19:38;22.65;;;12.38;;
61322;SDS011;47203;48.428;11.974;2022-12-18T13:21:43;22.23;;;12.23;;
61322;SDS011;47203;48.428;11.974;2022-12-18T13:24:14;18.42;;;11.13;;
61322;SDS011;47203;48.428;11.974;2022-12-18T13:26:30;19.55;;;10.73;;
61322;SDS011;47203;48.428;11.974;2022-12-18T13:28:50;19.60;;;11.40;;
61322;SDS011;47203;48.428;11.974;2022-12-18T13:30:57;21.83;;;12.40;;
61322;SDS011;47203;48.428;11.974;2022-12-18T13:36:12;18.13;;;10.55;;
61322;SDS011;47203;48.428;11.974;2022-12-18T13:38:34;17.55;;;9.82;;
61322;SDS011;47203;48.428;11.974;2022-12-18T13:43:13;19.65;;;9.77;;
61322;SDS011;47203;48.428;11.974;2022-12-18T13:45:43;16.90;;;10.38;;
61322;SDS011;47203;48.428;11.974;2022-12-18T13:47:52;17.15;;;10.40;;
61322;SDS011;47203;48.428;11.974;2022-12-18T13:49:58;17.70;;;10.13;;
61322;SDS011;47203;48.428;11.974;2022-12-18T13:52:18;15.35;;;8.65;;
61322;SDS011;47203;48.428;11.974;2022-12-18T13:54:30;15.32;;;9.63;;
61322;SDS011;47203;48.428;11.974;2022-12-18T13:56:43;16.90;;;9.68;;
61322;SDS011;47203;48.428;11.974;2022-12-18T14:01:25;17.75;;;9.38;;
61322;SDS011;47203;48.428;11.974;2022-12-18T14:03:31;15.07;;;8.43;;
61322;SDS011;47203;48.428;11.974;2022-12-18T14:05:37;15.52;;;9.05;;
61322;SDS011;47203;48.428;11.974;2022-12-18T14:07:48;16.60;;;9.23;;
61322;SDS011;47203;48.428;11.974;2022-12-18T14:09:55;15.95;;;9.48;;
61322;SDS011;47203;48.428;11.974;2022-12-18T14:12:25;16.88;;;9.60;;
61322;SDS011;47203;48.428;11.974;2022-12-18T14:14:48;17.92;;;9.85;;
61322;SDS011;47203;48.428;11.974;2022-12-18T14:16:57;18.30;;;10.15;;
61322;SDS011;47203;48.428;11.974;2022-12-18T14:19:08;18.52;;;10.95;;
61322;SDS011;47203;48.428;11.974;2022-12-18T14:21:21;15.55;;;9.02;;
61322;SDS011;47203;48.428;11.974;2022-12-18T14:23:34;19.75;;;10.63;;
61322;SDS011;47203;48.428;11.974;2022-12-18T14:25:45;20.98;;;12.18;;
61322;SDS011;47203;48.428;11.974;2022-12-18T14:27:52;16.15;;;9.88;;
61322;SDS011;47203;48.428;11.974;2022-12-18T14:30:18;14.80;;;9.40;;
61322;SDS011;47203;48.428;11.974;2022-12-18T14:32:30;17.13;;;10.02;;
61322;SDS011;47203;48.428;11.974;2022-12-18T14:34:36;20.65;;;11.40;;
61322;SDS011;47203;48.428;11.974;2022-12-18T14:36:44;18.48;;;10.00;;
61322;SDS011;47203;48.428;11.974;2022-12-18T14:39:00;18.23;;;10.25;;
61322;SDS011;47203;48.428;11.974;2022-12-18T14:41:06;18.42;;;10.27;;
61322;SDS011;47203;48.428;11.974;2022-12-18T14:43:17;18.10;;;10.25;;
61322;SDS011;47203;48.428;11.974;2022-12-18T14:45:34;16.85;;;9.73;;
61322;SDS011;47203;48.428;11.974;2022-12-18T14:47:43;17.42;;;9.95;;
61322;SDS011;47203;48.428;11.974;2022-12-18T14:49:49;18.63;;;9.68;;
61322;SDS011;47203;48.428;11.974;2022-12-18T14:51:55;20.35;;;10.32;;
61322;SDS011;47203;48.428;11.974;2022-12-18T14:54:05;17.80;;;9.75;;
61322;SDS011;47203;48.428;11.974;2022-12-18T14:56:22;16.45;;;9.32;;
61322;SDS011;47203;48.428;11.974;2022-12-18T14:58:31;18.67;;;9.93;;
61322;SDS011;47203;48.428;11.974;2022-12-18T15:00:37;19.02;;;10.00;;
61322;SDS011;47203;48.428;11.974;2022-12-18T15:02:46;19.05;;;11.05;;
61322;SDS011;47203;48.428;11.974;2022-12-18T15:04:59;17.08;;;9.80;;
61322;SDS011;47203;48.428;11.974;2022-12-18T15:07:14;16.05;;;9.15;;
61322;SDS011;47203;48.428;11.974;2022-12-18T15:09:26;16.05;;;10.13;;
61322;SDS011;47203;48.428;11.974;2022-12-18T15:11:32;19.98;;;10.70;;
61322;SDS011;47203;48.428;11.974;2022-12-18T15:13:48;16.58;;;10.13;;
61322;SDS011;47203;48.428;11.974;2022-12-18T15:15:53;19.08;;;10.63;;
61322;SDS011;47203;48.428;11.974;2022-12-18T15:18:03;15.20;;;10.05;;
61322;SDS011;47203;48.428;11.974;2022-12-18T15:20:17;19.40;;;10.88;;
61322;SDS011;47203;48.428;11.974;2022-12-18T15:22:24;16.17;;;10.00;;
61322;SDS011;47203;48.428;11.974;2022-12-18T15:24:37;16.83;;;9.77;;
61322;SDS011;47203;48.428;11.974;2022-12-18T15:26:45;20.42;;;10.63;;
61322;SDS011;47203;48.428;11.974;2022-12-18T15:28:50;17.83;;;10.07;;
61322;SDS011;47203;48.428;11.974;2022-12-18T15:31:00;18.02;;;10.73;;
61322;SDS011;47203;48.428;11.974;2022-12-18T15:33:25;18.25;;;10.25;;
61322;SDS011;47203;48.428;11.974;2022-12-18T15:35:36;18.63;;;11.30;;
61322;SDS011;47203;48.428;11.974;2022-12-18T15:37:47;17.73;;;10.48;;
61322;SDS011;47203;48.428;11.974;2022-12-18T15:39:56;20.40;;;11.18;;
61322;SDS011;47203;48.428;11.974;2022-12-18T15:42:02;19.55;;;11.23;;
61322;SDS011;47203;48.428;11.974;2022-12-18T15:44:21;21.00;;;11.57;;
61322;SDS011;47203;48.428;11.974;2022-12-18T15:46:28;19.90;;;10.27;;
61322;SDS011;47203;48.428;11.974;2022-12-18T15:48:35;20.55;;;10.98;;
61322;SDS011;47203;48.428;11.974;2022-12-18T15:50:44;20.02;;;12.02;;
61322;SDS011;47203;48.428;11.974;2022-12-18T15:52:50;17.80;;;11.25;;
61322;SDS011;47203;48.428;11.974;2022-12-18T15:55:01;22.10;;;12.38;;
61322;SDS011;47203;48.428;11.974;2022-12-18T15:57:20;20.10;;;11.73;;
61322;SDS011;47203;48.428;11.974;2022-12-18T15:59:28;22.98;;;13.27;;
61322;SDS011;47203;48.428;11.974;2022-12-18T16:01:33;21.98;;;11.70;;
61322;SDS011;47203;48.428;11.974;2022-12-18T16:03:43;19.67;;;11.13;;
61322;SDS011;47203;48.428;11.974;2022-12-18T16:05:48;18.10;;;10.70;;
61322;SDS011;47203;48.428;11.974;2022-12-18T16:07:54;18.85;;;11.82;;
61322;SDS011;47203;48.428;11.974;2022-12-18T16:10:03;18.65;;;12.07;;
61322;SDS011;47203;48.428;11.974;2022-12-18T16:12:11;22.45;;;12.65;;
61322;SDS011;47203;48.428;11.974;2022-12-18T16:14:23;23.30;;;12.98;;
61322;SDS011;47203;48.428;11.974;2022-12-18T16:16:30;21.88;;;13.07;;
61322;SDS011;47203;48.428;11.974;2022-12-18T16:18:37;22.02;;;13.73;;
61322;SDS011;47203;48.428;11.974;2022-12-18T16:20:43;24.75;;;14.02;;
61322;SDS011;47203;48.428;11.974;2022-12-18T16:22:48;21.33;;;12.52;;
61322;SDS011;47203;48.428;11.974;2022-12-18T16:24:55;22.23;;;12.60;;
61322;SDS011;47203;48.428;11.974;2022-12-18T16:27:04;22.15;;;13.25;;
61322;SDS011;47203;48.428;11.974;2022-12-18T16:29:10;24.25;;;14.07;;
61322;SDS011;47203;48.428;11.974;2022-12-18T16:31:15;21.83;;;12.50;;
61322;SDS011;47203;48.428;11.974;2022-12-18T16:33:21;24.63;;;13.13;;
61322;SDS011;47203;48.428;11.974;2022-12-18T16:35:26;24.35;;;12.82;;
61322;SDS011;47203;48.428;11.974;2022-12-18T16:37:32;19.17;;;11.05;;
61322;SDS011;47203;48.428;11.974;2022-12-18T16:39:38;21.30;;;13.05;;
61322;SDS011;47203;48.428;11.974;2022-12-18T16:41:46;23.73;;;13.23;;
61322;SDS011;47203;48.428;11.974;2022-12-18T16:43:54;19.90;;;12.15;;
61322;SDS011;47203;48.428;11.974;2022-12-18T16:46:00;25.27;;;12.77;;
61322;SDS011;47203;48.428;11.974;2022-12-18T16:48:06;21.80;;;11.98;;
61322;SDS011;47203;48.428;11.974;2022-12-18T16:50:12;22.45;;;13.52;;
61322;SDS011;47203;48.428;11.974;2022-12-18T16:52:19;21.88;;;12.55;;
61322;SDS011;47203;48.428;11.974;2022-12-18T16:54:25;19.33;;;10.93;;
61322;SDS011;47203;48.428;11.974;2022-12-18T16:56:31;27.95;;;15.32;;
61322;SDS011;47203;48.428;11.974;2022-12-18T16:58:39;23.20;;;13.15;;
61322;SDS011;47203;48.428;11.974;2022-12-18T17:00:48;21.40;;;12.85;;
61322;SDS011;47203;48.428;11.974;2022-12-18T17:02:53;22.52;;;12.45;;
61322;SDS011;47203;48.428;11.974;2022-12-18T17:05:00;22.10;;;12.18;;
61322;SDS011;47203;48.428;11.974;2022-12-18T17:07:05;23.67;;;12.85;;
61322;SDS011;47203;48.428;11.974;2022-12-18T17:09:11;21.08;;;12.73;;
61322;SDS011;47203;48.428;11.974;2022-12-18T17:11:18;26.33;;;13.75;;
61322;SDS011;47203;48.428;11.974;2022-12-18T17:13:25;22.98;;;12.85;;
61322;SDS011;47203;48.428;11.974;2022-12-18T17:15:33;21.10;;;12.32;;
61322;SDS011;47203;48.428;11.974;2022-12-18T17:17:42;26.20;;;13.90;;
61322;SDS011;47203;48.428;11.974;2022-12-18T17:19:48;26.35;;;13.43;;
61322;SDS011;47203;48.428;11.974;2022-12-18T17:21:53;24.02;;;12.57;;
61322;SDS011;47203;48.428;11.974;2022-12-18T17:23:59;24.35;;;13.68;;
61322;SDS011;47203;48.428;11.974;2022-12-18T17:26:05;20.63;;;11.77;;
61322;SDS011;47203;48.428;11.974;2022-12-18T17:28:11;19.80;;;11.73;;
61322;SDS011;47203;48.428;11.974;2022-12-18T17:30:17;22.92;;;13.50;;
61322;SDS011;47203;48.428;11.974;2022-12-18T17:32:22;22.25;;;12.80;;
61322;SDS011;47203;48.428;11.974;2022-12-18T17:34:31;27.08;;;13.88;;
61322;SDS011;47203;48.428;11.974;2022-12-18T17:36:38;25.80;;;14.48;;
61322;SDS011;47203;48.428;11.974;2022-12-18T17:38:48;24.88;;;13.48;;
61322;SDS011;47203;48.428;11.974;2022-12-18T17:40:59;26.90;;;14.95;;
61322;SDS011;47203;48.428;11.974;2022-12-18T17:43:06;25.92;;;13.63;;
61322;SDS011;47203;48.428;11.974;2022-12-18T17:45:12;22.27;;;11.73;;
61322;SDS011;47203;48.428;11.974;2022-12-18T17:47:17;23.95;;;12.75;;
61322;SDS011;47203;48.428;11.974;2022-12-18T17:49:24;24.60;;;12.95;;
61322;SDS011;47203;48.428;11.974;2022-12-18T17:51:32;21.98;;;12.73;;
61322;SDS011;47203;48.428;11.974;2022-12-18T17:53:37;24.75;;;13.98;;
61322;SDS011;47203;48.428;11.974;2022-12-18T17:55:52;28.55;;;14.57;;
61322;SDS011;47203;48.428;11.974;2022-12-18T17:57:58;25.23;;;13.88;;
61322;SDS011;47203;48.428;11.974;2022-12-18T18:00:04;25.50;;;13.80;;
61322;SDS011;47203;48.428;11.974;2022-12-18T18:02:11;27.08;;;14.38;;
61322;SDS011;47203;48.428;11.974;2022-12-18T18:04:17;24.77;;;13.43;;
61322;SDS011;47203;48.428;11.974;2022-12-18T18:06:24;21.55;;;13.85;;
61322;SDS011;47203;48.428;11.974;2022-12-18T18:08:34;19.85;;;12.20;;
61322;SDS011;47203;48.428;11.974;2022-12-18T18:10:40;21.15;;;12.65;;
61322;SDS011;47203;48.428;11.974;2022-12-18T18:12:45;22.52;;;12.43;;
61322;SDS011;47203;48.428;11.974;2022-12-18T18:15:03;25.42;;;13.90;;
61322;SDS011;47203;48.428;11.974;2022-12-18T18:17:10;26.33;;;13.93;;
61322;SDS011;47203;48.428;11.974;2022-12-18T18:19:16;24.27;;;15.05;;
61322;SDS011;47203;48.428;11.974;2022-12-18T18:21:24;27.02;;;14.63;;
61322;SDS011;47203;48.428;11.974;2022-12-18T18:23:34;25.50;;;16.15;;
61322;SDS011;47203;48.428;11.974;2022-12-18T18:25:41;22.95;;;13.68;;
61322;SDS011;47203;48.428;11.974;2022-12-18T18:27:47;25.45;;;14.10;;
61322;SDS011;47203;48.428;11.974;2022-12-18T18:29:52;23.15;;;13.32;;
61322;SDS011;47203;48.428;11.974;2022-12-18T18:31:58;24.15;;;13.07;;
61322;SDS011;47203;48.428;11.974;2022-12-18T18:34:03;26.08;;;14.05;;
61322;SDS011;47203;48.428;11.974;2022-12-18T18:36:09;22.20;;;12.60;;
61322;SDS011;47203;48.428;11.974;2022-12-18T18:38:15;28.10;;;14.15;;
61322;SDS011;47203;48.428;11.974;2022-12-18T18:40:23;27.02;;;15.18;;
61322;SDS011;47203;48.428;11.974;2022-12-18T18:42:29;28.00;;;15.35;;
61322;SDS011;47203;48.428;11.974;2022-12-18T18:44:34;28.98;;;16.23;;
61322;SDS011;47203;48.428;11.974;2022-12-18T18:46:46;63.13;;;29.63;;
61322;SDS011;47203;48.428;11.974;2022-12-18T18:48:54;62.75;;;31.33;;
61322;SDS011;47203;48.428;11.974;2022-12-18T18:51:01;46.30;;;24.60;;
61322;SDS011;47203;48.428;11.974;2022-12-18T18:53:11;35.40;;;20.40;;
61322;SDS011;47203;48.428;11.974;2022-12-18T18:55:17;26.35;;;15.15;;
61322;SDS011;47203;48.428;11.974;2022-12-18T18:57:28;25.30;;;15.65;;
61322;SDS011;47203;48.428;11.974;2022-12-18T18:59:34;26.02;;;14.10;;
61322;SDS011;47203;48.428;11.974;2022-12-18T19:01:39;25.13;;;14.93;;
61322;SDS011;47203;48.428;11.974;2022-12-18T19:03:46;25.55;;;14.27;;
61322;SDS011;47203;48.428;11.974;2022-12-18T19:05:52;23.33;;;13.55;;
61322;SDS011;47203;48.428;11.974;2022-12-18T19:08:00;29.63;;;15.75;;
61322;SDS011;47203;48.428;11.974;2022-12-18T19:10:06;28.85;;;16.83;;
61322;SDS011;47203;48.428;11.974;2022-12-18T19:12:13;26.40;;;15.00;;
61322;SDS011;47203;48.428;11.974;2022-12-18T19:14:33;22.98;;;13.65;;
61322;SDS011;47203;48.428;11.974;2022-12-18T19:16:38;30.75;;;16.48;;
61322;SDS011;47203;48.428;11.974;2022-12-18T19:18:47;29.55;;;17.33;;
61322;SDS011;47203;48.428;11.974;2022-12-18T19:20:59;28.58;;;15.80;;
61322;SDS011;47203;48.428;11.974;2022-12-18T19:23:07;27.73;;;16.63;;
61322;SDS011;47203;48.428;11.974;2022-12-18T19:25:13;30.73;;;17.63;;
61322;SDS011;47203;48.428;11.974;2022-12-18T19:27:19;30.10;;;15.50;;
61322;SDS011;47203;48.428;11.974;2022-12-18T19:29:24;23.33;;;13.98;;
61322;SDS011;47203;48.428;11.974;2022-12-18T19:31:33;25.95;;;14.20;;
61322;SDS011;47203;48.428;11.974;2022-12-18T19:33:39;25.40;;;15.10;;
61322;SDS011;47203;48.428;11.974;2022-12-18T19:35:47;25.67;;;13.27;;
61322;SDS011;47203;48.428;11.974;2022-12-18T19:37:53;27.17;;;13.38;;
61322;SDS011;47203;48.428;11.974;2022-12-18T19:39:58;26.55;;;14.65;;
61322;SDS011;47203;48.428;11.974;2022-12-18T19:42:13;30.98;;;16.52;;
61322;SDS011;47203;48.428;11.974;2022-12-18T19:44:26;29.38;;;15.43;;
61322;SDS011;47203;48.428;11.974;2022-12-18T19:46:35;30.52;;;16.20;;
61322;SDS011;47203;48.428;11.974;2022-12-18T19:48:42;27.40;;;16.17;;
61322;SDS011;47203;48.428;11.974;2022-12-18T19:50:48;30.00;;;15.90;;
61322;SDS011;47203;48.428;11.974;2022-12-18T19:52:54;25.63;;;14.45;;
61322;SDS011;47203;48.428;11.974;2022-12-18T19:54:59;24.08;;;13.18;;
61322;SDS011;47203;48.428;11.974;2022-12-18T19:57:05;24.20;;;13.88;;
61322;SDS011;47203;48.428;11.974;2022-12-18T19:59:12;22.40;;;12.50;;
61322;SDS011;47203;48.428;11.974;2022-12-18T20:01:18;20.17;;;11.43;;
61322;SDS011;47203;48.428;11.974;2022-12-18T20:03:29;22.33;;;13.65;;
61322;SDS011;47203;48.428;11.974;2022-12-18T20:05:34;25.70;;;14.68;;
61322;SDS011;47203;48.428;11.974;2022-12-18T20:07:40;27.23;;;14.73;;
61322;SDS011;47203;48.428;11.974;2022-12-18T20:09:45;22.02;;;13.20;;
61322;SDS011;47203;48.428;11.974;2022-12-18T20:12:01;25.35;;;13.15;;
61322;SDS011;47203;48.428;11.974;2022-12-18T20:14:08;26.48;;;15.10;;
61322;SDS011;47203;48.428;11.974;2022-12-18T20:16:14;25.98;;;14.27;;
61322;SDS011;47203;48.428;11.974;2022-12-18T20:18:20;26.17;;;13.80;;
61322;SDS011;47203;48.428;11.974;2022-12-18T20:20:28;26.65;;;14.98;;
61322;SDS011;47203;48.428;11.974;2022-12-18T20:22:34;25.23;;;13.90;;
61322;SDS011;47203;48.428;11.974;2022-12-18T20:24:39;25.38;;;13.93;;
61322;SDS011;47203;48.428;11.974;2022-12-18T20:26:47;23.52;;;14.30;;
61322;SDS011;47203;48.428;11.974;2022-12-18T20:28:53;27.50;;;15.50;;
61322;SDS011;47203;48.428;11.974;2022-12-18T20:30:59;26.15;;;15.57;;
61322;SDS011;47203;48.428;11.974;2022-12-18T20:33:06;25.70;;;15.15;;
61322;SDS011;47203;48.428;11.974;2022-12-18T20:35:12;23.73;;;14.05;;
61322;SDS011;47203;48.428;11.974;2022-12-18T20:37:20;22.40;;;12.80;;
61322;SDS011;47203;48.428;11.974;2022-12-18T20:39:27;28.02;;;14.43;;
61322;SDS011;47203;48.428;11.974;2022-12-18T20:41:33;26.60;;;14.27;;
61322;SDS011;47203;48.428;11.974;2022-12-18T20:43:39;25.73;;;14.60;;
61322;SDS011;47203;48.428;11.974;2022-12-18T20:45:46;24.52;;;14.55;;
61322;SDS011;47203;48.428;11.974;2022-12-18T20:47:52;26.98;;;14.77;;
61322;SDS011;47203;48.428;11.974;2022-12-18T20:49:57;27.52;;;14.50;;
61322;SDS011;47203;48.428;11.974;2022-12-18T20:52:03;27.55;;;14.40;;
61322;SDS011;47203;48.428;11.974;2022-12-18T20:54:12;29.20;;;15.95;;
61322;SDS011;47203;48.428;11.974;2022-12-18T20:56:18;30.33;;;17.25;;
61322;SDS011;47203;48.428;11.974;2022-12-18T20:58:27;30.48;;;19.05;;
61322;SDS011;47203;48.428;11.974;2022-12-18T21:00:34;39.20;;;21.77;;
61322;SDS011;47203;48.428;11.974;2022-12-18T21:02:39;36.97;;;20.05;;
61322;SDS011;47203;48.428;11.974;2022-12-18T21:04:45;37.50;;;19.45;;
61322;SDS011;47203;48.428;11.974;2022-12-18T21:06:50;36.47;;;20.02;;
61322;SDS011;47203;48.428;11.974;2022-12-18T21:09:03;36.42;;;19.90;;
61322;SDS011;47203;48.428;11.974;2022-12-18T21:11:16;31.25;;;17.38;;
61322;SDS011;47203;48.428;11.974;2022-12-18T21:13:42;35.03;;;19.02;;